Aérodrome :
LOGIN :

S'inscrire | Disclaimer

   EN    FR    IT 

 










Légende :    VFR   VFR Marginal   IFR   IFR Intensif   IFR Très Intensif
Visi : 
Plafond : 
>= 8 km
>= 3000ft
5 à 8 km
1000 à 3000 ft
1500m à 5 km
500 à 1000 ft
800 à 1500m
200 à 500 ft
< 800m
< 200 ft
Symboles :   Orages  Brouillard  Fortes neiges  Fortes précipitations  Vent > 20 kt
SIGMETs :   Divers  Orages  Givrage  Turbulence  Onde Orograph.  Cendres Volcan.






- Altitude de l'aérodrome : 1213 ft
- Code IATA : SCQ


LEST - Santiago de Compostela

DERNIER METAR :
  • 250630Z 22007KT 150V260 9999 -DZ BCFG OVC002 09/09 Q1022 BECMG 3000 -RADZ

METARs EXPIRÉS :
  • 250600Z 21006KT 160V260 9000 3000S -RA BCFG SCT002 OVC003 08/08 Q1022 BECMG 3000 -RADZ
  • 250530Z 21006KT 160V250 8000 3000S -RA BCFG OVC003 08/08 Q1022 BECMG 3000 -RADZ
  • 250500Z 22006KT 180V300 7000 3000S -RA BCFG OVC003 08/08 Q1023 BECMG 3000 -RADZ
  • 250430Z 21005KT 170V250 5000 -DZ BR OVC002 08/08 Q1022 BECMG 3000 -RADZ
  • 250400Z 22006KT 190V270 9999 -DZ OVC003 08/08 Q1023 BECMG 3000 -RADZ

TAF TAF LEST
Valide du 25 à 06h jusqu'au 26 à 06h UTC


250500Z 2506/2606 22009KT 9999 SCT010 BKN016 TX12/2514Z TN06/2606Z
BECMG 2508/2510 32010KT
TEMPO 2506/2512 3000 -RADZ BKN005 BKN010
TEMPO 2506/2509 1500 RA BKN002 BKN005
PROB40
TEMPO 2509/2518 SHRA SCT025TCU



MET'MAP, la Météo Aéronautique d'un coup d'oeil ! - Copyright ORBIFLY Décembre 2007 - Disclaimer

ORBIFLY MET'MAP TEAM :

Programmation & Développement : Alexandra Zaïnal
Sur une idée originale de : Baudouin d'Aumeries
Assistance à la programmation : Marc-Olivier Méhu
Soutien technique & logistique : Manuel Goepfert

Contact : metmap@orbifly.com




SOURCES & CREDITS :

   NOAA